createdAt,value
2019-04-04T00:01:39.674Z,7.07
2019-04-04T00:04:10.053Z,7.10
2019-04-04T00:06:40.550Z,7.27
2019-04-04T00:09:11.231Z,6.63
2019-04-04T00:11:41.632Z,7.90
2019-04-04T00:14:14.778Z,7.90
2019-04-04T00:16:51.735Z,8.90
2019-04-04T00:19:29.932Z,9.05
2019-04-04T00:22:01.056Z,8.97
2019-04-04T00:24:31.476Z,9.07
2019-04-04T00:27:01.856Z,9.13
2019-04-04T00:29:32.307Z,10.57
2019-04-04T00:32:02.684Z,9.90
2019-04-04T00:34:33.109Z,10.67
2019-04-04T00:37:04.775Z,11.53
2019-04-04T00:39:35.744Z,12.87
2019-04-04T00:42:06.157Z,10.73
2019-04-04T00:44:36.579Z,11.47
2019-04-04T00:47:06.953Z,54.20
2019-04-04T00:49:37.336Z,68.33
2019-04-04T00:52:09.932Z,15.73
2019-04-04T00:54:39.895Z,13.25
2019-04-04T00:57:10.367Z,27.00
2019-04-04T00:59:40.740Z,12.00
2019-04-04T01:02:11.224Z,13.90
2019-04-04T01:04:41.649Z,11.73
2019-04-04T01:07:12.256Z,12.00
2019-04-04T01:09:45.875Z,12.70
2019-04-04T01:12:17.706Z,12.30
2019-04-04T01:14:48.090Z,12.13
2019-04-04T01:17:18.512Z,16.60
2019-04-04T01:19:49.775Z,23.43
2019-04-04T01:22:20.356Z,21.63
2019-04-04T01:24:50.727Z,27.70
2019-04-04T01:27:21.150Z,26.00
2019-04-04T01:29:51.529Z,20.03
2019-04-04T01:32:21.951Z,17.87
2019-04-04T01:34:52.763Z,17.20
2019-04-04T01:37:25.173Z,15.30
2019-04-04T01:39:55.563Z,15.47
2019-04-04T01:42:26.066Z,14.70
2019-04-04T01:44:56.499Z,13.97
2019-04-04T01:47:26.996Z,13.73
2019-04-04T01:49:57.426Z,16.87
2019-04-04T01:52:28.606Z,13.60
2019-04-04T01:55:03.018Z,16.23
2019-04-04T01:57:31.629Z,14.60
2019-04-04T02:00:02.042Z,14.90
2019-04-04T02:02:32.499Z,13.70
2019-04-04T02:05:02.991Z,15.10
2019-04-04T02:07:33.388Z,16.07
2019-04-04T02:10:05.477Z,15.43
2019-04-04T02:12:38.582Z,19.27
2019-04-04T02:15:13.807Z,17.90
2019-04-04T02:17:42.740Z,15.17
2019-04-04T02:20:13.219Z,15.23
2019-04-04T02:22:43.611Z,15.00
2019-04-04T02:25:14.234Z,15.50
2019-04-04T02:27:44.662Z,15.50
2019-04-04T02:30:16.354Z,16.90
2019-04-04T02:32:47.192Z,25.47
2019-04-04T02:35:17.632Z,16.07
2019-04-04T02:37:48.012Z,15.90
2019-04-04T02:40:18.594Z,14.90
2019-04-04T02:42:49.005Z,15.13
2019-04-04T02:45:19.515Z,15.17
2019-04-04T02:47:51.264Z,15.60
2019-04-04T02:50:21.992Z,17.05
2019-04-04T02:52:52.363Z,15.97
2019-04-04T02:55:22.781Z,15.63
2019-04-04T02:57:53.154Z,18.63
2019-04-04T03:00:26.283Z,16.03
2019-04-04T03:02:55.692Z,22.80
2019-04-04T03:05:26.224Z,26.40
2019-04-04T03:07:56.587Z,26.57
2019-04-04T03:10:27.217Z,23.43
2019-04-04T03:12:58.648Z,24.97
2019-04-04T03:15:29.724Z,23.20
2019-04-04T03:18:04.175Z,23.97
2019-04-04T03:20:32.324Z,22.67
2019-04-04T03:23:02.702Z,22.13
2019-04-04T03:25:33.301Z,21.87
2019-04-04T03:28:03.830Z,29.82
2019-04-04T03:30:34.335Z,23.43
2019-04-04T03:33:05.890Z,23.43
2019-04-04T03:35:36.217Z,21.20
2019-04-04T03:38:06.675Z,25.00
2019-04-04T03:40:37.092Z,25.13
2019-04-04T03:43:07.562Z,22.77
2019-04-04T03:46:00.167Z,23.10
2019-04-04T03:48:31.894Z,19.90
2019-04-04T03:51:04.639Z,20.37
2019-04-04T03:53:34.462Z,19.70
2019-04-04T03:56:04.896Z,20.93
2019-04-04T03:58:36.026Z,21.93
2019-04-04T04:01:06.443Z,19.47
2019-04-04T04:03:36.908Z,22.03
2019-04-04T04:06:08.988Z,23.30
2019-04-04T04:08:39.298Z,22.77
2019-04-04T04:11:09.809Z,24.33
2019-04-04T04:13:40.216Z,26.23
2019-04-04T04:16:11.052Z,25.37
2019-04-04T04:18:41.555Z,28.37
2019-04-04T04:21:12.079Z,27.73
2019-04-04T04:23:42.798Z,26.57
2019-04-04T04:28:14.594Z,26.50
2019-04-04T04:29:22.294Z,27.13
2019-04-04T04:32:06.559Z,28.23
2019-04-04T04:34:38.760Z,27.20
2019-04-04T04:37:11.159Z,27.07
2019-04-04T04:39:41.546Z,26.63
2019-04-04T04:42:21.503Z,26.50
2019-04-04T04:44:52.434Z,25.03
2019-04-04T04:47:27.108Z,24.27
2019-04-04T04:50:00.776Z,23.80
2019-04-04T04:52:47.974Z,24.93
2019-04-04T04:55:28.889Z,23.00
2019-04-04T04:58:00.151Z,24.10
2019-04-04T05:00:30.636Z,24.00
2019-04-04T05:03:01.440Z,26.57
2019-04-04T05:05:33.578Z,28.60
2019-04-04T05:08:06.073Z,26.87
2019-04-04T05:10:39.336Z,24.73
2019-04-04T05:13:14.505Z,25.57
2019-04-04T05:15:46.453Z,24.87
2019-04-04T05:18:18.377Z,23.73
2019-04-04T05:20:48.807Z,23.80
2019-04-04T05:23:28.190Z,34.07
2019-04-04T05:26:02.336Z,26.53
2019-04-04T05:28:35.827Z,26.87
2019-04-04T05:31:07.345Z,25.60
2019-04-04T05:33:46.640Z,26.67
2019-04-04T05:36:21.319Z,24.70
2019-04-04T05:38:56.262Z,25.23
2019-04-04T05:41:27.368Z,26.27
2019-04-04T05:43:58.559Z,26.13
2019-04-04T05:46:32.783Z,26.07
2019-04-04T05:49:07.841Z,25.30
2019-04-04T05:51:37.365Z,24.07
2019-04-04T05:54:08.395Z,27.00
2019-04-04T05:56:39.369Z,27.58
2019-04-04T05:59:09.879Z,24.72
2019-04-04T06:01:49.348Z,23.60
2019-04-04T06:04:20.263Z,23.52
2019-04-04T06:06:50.819Z,22.93
2019-04-04T06:09:21.199Z,23.50
2019-04-04T06:11:55.733Z,24.15
2019-04-04T06:14:30.682Z,25.30
2019-04-04T06:17:01.182Z,25.72
2019-04-04T06:19:36.013Z,25.05
2019-04-04T06:22:06.496Z,23.95
2019-04-04T06:24:37.111Z,25.43
2019-04-04T06:27:09.131Z,27.43
2019-04-04T06:29:39.823Z,22.47
2019-04-04T06:32:10.209Z,21.73
2019-04-04T06:34:44.953Z,21.40
2019-04-04T06:37:18.058Z,23.40
2019-04-04T06:39:54.184Z,20.53
2019-04-04T06:42:24.603Z,19.93
2019-04-04T06:44:58.625Z,19.53
2019-04-04T06:47:32.369Z,17.90
2019-04-04T06:50:02.350Z,17.50
2019-04-04T06:52:32.701Z,17.50
2019-04-04T06:55:03.117Z,17.17
2019-04-04T06:57:34.209Z,17.70
2019-04-04T07:00:09.851Z,17.33
2019-04-04T07:02:40.332Z,15.73
2019-04-04T07:05:11.044Z,16.13
2019-04-04T07:07:43.849Z,16.27
2019-04-04T07:10:13.956Z,19.45
2019-04-04T07:12:44.964Z,18.40
2019-04-04T07:15:15.900Z,17.60
2019-04-04T07:17:46.943Z,16.97
2019-04-04T07:20:17.576Z,16.40
2019-04-04T07:22:49.500Z,16.47
2019-04-04T07:25:20.142Z,16.30
2019-04-04T07:27:50.507Z,16.43
2019-04-04T07:30:22.699Z,14.70
2019-04-04T07:32:53.080Z,15.53
2019-04-04T07:35:23.587Z,16.30
2019-04-04T07:37:57.250Z,14.60
2019-04-04T07:40:26.095Z,13.80
2019-04-04T07:42:56.491Z,13.73
2019-04-04T07:45:27.039Z,12.27
2019-04-04T07:47:57.530Z,14.50
2019-04-04T07:50:28.758Z,12.73
2019-04-04T07:53:04.053Z,13.00
2019-04-04T07:55:34.171Z,12.97
2019-04-04T07:58:15.537Z,11.97
2019-04-04T08:00:47.524Z,11.50
2019-04-04T08:03:20.419Z,10.47
2019-04-04T08:05:50.846Z,11.93
2019-04-04T08:08:21.266Z,12.53
2019-04-04T08:10:52.175Z,11.93
2019-04-04T08:13:27.963Z,10.23
2019-04-04T08:15:58.322Z,12.37
2019-04-04T08:18:28.852Z,11.77
2019-04-04T08:21:00.149Z,13.45
2019-04-04T08:23:33.164Z,12.17
2019-04-04T08:26:03.594Z,11.03
2019-04-04T08:28:33.963Z,8.30
2019-04-04T08:31:04.388Z,8.83
2019-04-04T08:33:35.972Z,7.87
2019-04-04T08:36:06.744Z,7.80
2019-04-04T08:38:37.290Z,6.80
2019-04-04T08:41:07.728Z,7.47
2019-04-04T08:43:38.130Z,5.20
2019-04-04T08:46:08.565Z,5.80
2019-04-04T08:48:38.984Z,5.30
2019-04-04T08:51:09.453Z,3.20
2019-04-04T08:53:40.593Z,3.93
2019-04-04T08:56:11.420Z,3.73
2019-04-04T08:58:41.813Z,3.90
2019-04-04T09:01:12.380Z,4.97
2019-04-04T09:03:44.491Z,3.27
2019-04-04T09:06:14.908Z,3.50
2019-04-04T09:08:45.380Z,4.07
2019-04-04T09:11:15.770Z,4.93
2019-04-04T09:13:46.141Z,5.73
2019-04-04T09:16:16.598Z,7.07
2019-04-04T09:18:47.000Z,7.70
2019-04-04T09:21:17.407Z,7.70
2019-04-04T09:23:47.806Z,8.17
2019-04-04T09:26:18.223Z,7.43
2019-04-04T09:28:48.641Z,7.47
2019-04-04T09:31:19.163Z,8.78
2019-04-04T09:33:49.556Z,8.10
2019-04-04T09:36:19.986Z,7.27
2019-04-04T09:38:50.368Z,7.97
2019-04-04T09:41:20.836Z,7.37
2019-04-04T09:43:51.364Z,7.93
2019-04-04T09:46:21.881Z,8.13
2019-04-04T09:48:52.302Z,8.10
2019-04-04T09:51:22.702Z,8.27
2019-04-04T09:53:53.623Z,8.23
2019-04-04T09:56:24.478Z,8.00
2019-04-04T09:58:55.221Z,8.40
2019-04-04T10:01:25.926Z,6.83
2019-04-04T10:03:56.373Z,7.20
2019-04-04T10:06:26.758Z,7.42
2019-04-04T10:08:57.226Z,8.63
2019-04-04T10:11:27.604Z,8.60
2019-04-04T10:13:58.061Z,9.10
2019-04-04T10:16:28.574Z,8.70
2019-04-04T10:18:58.974Z,8.97
2019-04-04T10:21:29.391Z,9.53
2019-04-04T10:23:59.780Z,9.90
2019-04-04T10:26:30.181Z,9.70
2019-04-04T10:29:00.603Z,9.53
2019-04-04T10:31:31.471Z,9.40
2019-04-04T10:34:03.033Z,9.13
2019-04-04T10:36:37.912Z,8.70
2019-04-04T10:39:12.891Z,9.27
2019-04-04T10:41:45.429Z,8.30
2019-04-04T10:44:15.520Z,8.50
2019-04-04T10:46:45.987Z,9.57
2019-04-04T10:49:16.343Z,8.07
2019-04-04T10:51:47.940Z,8.50
2019-04-04T10:54:18.313Z,7.43
2019-04-04T10:56:48.781Z,7.97
2019-04-04T10:59:19.235Z,8.07
2019-04-04T11:01:49.668Z,8.50
2019-04-04T11:04:21.779Z,9.00
2019-04-04T11:06:52.169Z,9.07
2019-04-04T11:09:25.417Z,8.63
2019-04-04T11:11:55.860Z,8.57
2019-04-04T11:14:26.354Z,9.80
2019-04-04T11:16:56.831Z,8.60
2019-04-04T11:19:31.465Z,9.40
2019-04-04T11:21:59.348Z,9.43
2019-04-04T11:24:34.508Z,10.10
2019-04-04T11:27:07.878Z,10.63
2019-04-04T11:29:38.257Z,9.43
2019-04-04T11:32:08.837Z,9.07
2019-04-04T11:34:39.254Z,8.93
2019-04-04T11:37:13.744Z,9.30
2019-04-04T11:39:54.050Z,8.13
2019-04-04T11:42:16.273Z,8.17
2019-04-04T11:44:46.843Z,8.40
2019-04-04T11:47:17.334Z,9.03
2019-04-04T11:49:47.978Z,9.13
2019-04-04T11:52:18.509Z,8.90
2019-04-04T11:55:01.095Z,8.63
2019-04-04T11:57:31.909Z,8.33
2019-04-04T12:00:03.842Z,7.60
2019-04-04T12:02:37.487Z,8.60
2019-04-04T12:05:09.092Z,7.47
2019-04-04T12:07:39.521Z,8.73
2019-04-04T12:10:10.303Z,7.47
2019-04-04T12:12:40.786Z,7.30
2019-04-04T12:15:11.467Z,7.97
2019-04-04T12:17:41.979Z,7.80
2019-04-04T12:20:13.051Z,7.00
2019-04-04T12:22:45.000Z,7.30
2019-04-04T12:25:15.596Z,8.07
2019-04-04T12:27:49.076Z,7.67
2019-04-04T12:30:20.886Z,7.27
2019-04-04T12:32:51.568Z,7.47
2019-04-04T12:35:21.970Z,7.13
2019-04-04T12:37:52.430Z,6.93
2019-04-04T12:40:27.152Z,7.40
2019-04-04T12:43:03.263Z,7.67
2019-04-04T12:45:33.672Z,7.70
2019-04-04T12:48:04.174Z,7.27
2019-04-04T12:50:34.604Z,6.43
2019-04-04T12:53:10.276Z,7.60
2019-04-04T12:55:40.703Z,6.53
2019-04-04T12:58:11.106Z,7.43
2019-04-04T13:00:43.063Z,7.43
2019-04-04T13:03:15.090Z,7.30
2019-04-04T13:05:45.501Z,7.20
2019-04-04T13:08:15.913Z,7.60
2019-04-04T13:10:51.888Z,7.43
2019-04-04T13:13:22.369Z,7.97
2019-04-04T13:15:52.817Z,8.27
2019-04-04T13:18:23.278Z,7.40
2019-04-04T13:20:53.709Z,9.13
2019-04-04T13:23:24.093Z,8.20
2019-04-04T13:25:54.562Z,8.63
2019-04-04T13:28:26.564Z,8.27
2019-04-04T13:30:56.988Z,8.80
2019-04-04T13:33:28.787Z,8.60
2019-04-04T13:35:59.267Z,9.10
2019-04-04T13:38:29.754Z,7.07
2019-04-04T13:41:00.182Z,6.47
2019-04-04T13:43:30.630Z,7.40
2019-04-04T13:46:01.050Z,7.63
2019-04-04T13:48:31.594Z,8.07
2019-04-04T13:51:03.731Z,7.73
2019-04-04T13:53:34.157Z,8.20
2019-04-04T13:56:06.073Z,8.73
2019-04-04T13:58:39.564Z,9.73
2019-04-04T14:01:09.905Z,8.87
2019-04-04T14:03:40.355Z,8.30
2019-04-04T14:06:11.623Z,7.77
2019-04-04T14:08:42.533Z,8.80
2019-04-04T14:11:13.037Z,8.87
2019-04-04T14:13:48.695Z,9.27
2019-04-04T14:16:18.171Z,8.90
2019-04-04T14:18:48.695Z,9.57
2019-04-04T14:21:25.170Z,9.53
2019-04-04T14:23:57.036Z,8.40
2019-04-04T14:26:29.289Z,8.30
2019-04-04T14:29:03.633Z,8.13
2019-04-04T14:31:34.981Z,7.43
2019-04-04T14:34:06.664Z,7.47
2019-04-04T14:36:37.122Z,8.03
2019-04-04T14:39:09.632Z,8.77
2019-04-04T14:41:40.245Z,7.87
2019-04-04T14:44:15.497Z,8.23
2019-04-04T14:46:45.601Z,7.80
2019-04-04T14:49:16.416Z,8.90
2019-04-04T14:51:46.975Z,8.27
2019-04-04T14:54:17.383Z,10.30
2019-04-04T14:56:47.964Z,8.87
2019-04-04T14:59:18.393Z,8.13
2019-04-04T15:01:48.905Z,8.50
2019-04-04T15:04:20.297Z,10.28
2019-04-04T15:06:50.825Z,8.70
2019-04-04T15:09:21.205Z,9.33
2019-04-04T15:11:51.750Z,7.67
2019-04-04T15:14:22.152Z,7.77
2019-04-04T15:16:59.420Z,8.10
2019-04-04T15:19:29.888Z,8.00
2019-04-04T15:22:04.270Z,7.43
2019-04-04T15:24:34.669Z,8.43
2019-04-04T15:27:06.327Z,8.07
2019-04-04T15:29:36.739Z,9.93
2019-04-04T15:32:07.156Z,8.13
2019-04-04T15:34:37.773Z,8.57
2019-04-04T15:37:08.330Z,9.45
2019-04-04T15:39:38.805Z,8.63
2019-04-04T15:42:09.250Z,8.67
2019-04-04T15:44:39.631Z,9.33
2019-04-04T15:47:10.156Z,9.47
2019-04-04T15:49:40.696Z,9.00
2019-04-04T15:52:11.122Z,8.63
2019-04-04T15:54:41.665Z,10.17
2019-04-04T15:57:12.081Z,11.23
2019-04-04T15:59:42.521Z,9.60
2019-04-04T16:02:13.089Z,10.17
2019-04-04T16:04:44.615Z,9.93
2019-04-04T16:07:15.047Z,11.57
2019-04-04T16:09:45.445Z,10.63
2019-04-04T16:12:15.871Z,9.70
2019-04-04T16:14:46.378Z,10.73
2019-04-04T16:17:16.843Z,12.97
2019-04-04T16:19:47.319Z,11.57
2019-04-04T16:22:17.955Z,12.00
2019-04-04T16:24:49.166Z,13.40
2019-04-04T16:27:19.780Z,12.23
2019-04-04T16:29:50.481Z,12.47
2019-04-04T16:32:24.593Z,13.40
2019-04-04T16:34:55.561Z,14.70
2019-04-04T16:37:26.171Z,14.87
2019-04-04T16:40:08.286Z,17.10
2019-04-04T16:42:28.683Z,20.60
2019-04-04T16:45:03.517Z,18.13
2019-04-04T16:47:33.939Z,15.63
2019-04-04T16:50:06.631Z,15.43
2019-04-04T16:52:37.041Z,14.67
2019-04-04T16:55:08.799Z,15.90
2019-04-04T16:57:39.153Z,15.60
2019-04-04T17:00:12.349Z,17.60
2019-04-04T17:02:42.797Z,17.40
2019-04-04T17:05:13.753Z,19.57
2019-04-04T17:07:44.156Z,20.67
2019-04-04T17:10:14.939Z,23.37
2019-04-04T17:12:45.334Z,30.30
2019-04-04T17:15:16.906Z,26.63
2019-04-04T17:17:47.324Z,23.87
2019-04-04T17:20:20.981Z,23.37
2019-04-04T17:22:52.953Z,23.50
2019-04-04T17:25:23.725Z,24.07
2019-04-04T17:27:54.165Z,24.27
2019-04-04T17:30:24.669Z,25.47
2019-04-04T17:32:55.524Z,26.60
2019-04-04T17:35:26.798Z,25.07
2019-04-04T17:37:57.727Z,25.00
2019-04-04T17:40:28.461Z,26.00
2019-04-04T17:42:58.925Z,31.23
2019-04-04T17:45:29.470Z,27.17
2019-04-04T17:48:00.300Z,28.50
2019-04-04T17:50:33.405Z,30.45
2019-04-04T17:53:04.177Z,26.97
2019-04-04T17:55:35.618Z,30.37
2019-04-04T17:58:13.796Z,28.33
2019-04-04T18:00:45.680Z,29.47
2019-04-04T18:03:16.135Z,27.93
2019-04-04T18:05:46.739Z,28.83
2019-04-04T18:08:25.035Z,28.47
2019-04-04T18:10:55.713Z,27.47
2019-04-04T18:13:26.108Z,27.30
2019-04-04T18:15:57.701Z,25.23
2019-04-04T18:18:28.276Z,23.70
2019-04-04T18:20:58.864Z,26.57
2019-04-04T18:23:29.351Z,22.93
2019-04-04T18:26:02.928Z,21.93
2019-04-04T18:28:33.370Z,21.77
2019-04-04T18:31:03.820Z,21.67
2019-04-04T18:33:34.435Z,20.57
2019-04-04T18:36:04.989Z,21.13
2019-04-04T18:38:38.211Z,20.77
2019-04-04T18:41:11.178Z,21.30
2019-04-04T18:43:41.571Z,27.97
2019-04-04T18:46:13.709Z,28.97
2019-04-04T18:48:47.274Z,24.60
2019-04-04T18:51:18.438Z,20.13
2019-04-04T18:53:48.825Z,22.57
2019-04-04T18:56:19.240Z,29.60
2019-04-04T18:58:49.675Z,28.90
2019-04-04T19:01:20.070Z,30.97
2019-04-04T19:03:50.536Z,34.83
2019-04-04T19:06:20.836Z,32.73
2019-04-04T19:08:51.275Z,35.77
2019-04-04T19:11:21.657Z,33.90
2019-04-04T19:13:52.012Z,29.43
2019-04-04T19:16:22.494Z,31.43
2019-04-04T19:18:53.003Z,29.77
2019-04-04T19:21:25.077Z,29.07
2019-04-04T19:23:56.969Z,30.80
2019-04-04T19:26:27.401Z,31.93
2019-04-04T19:28:57.779Z,33.37
2019-04-04T19:31:28.442Z,34.17
2019-04-04T19:33:58.880Z,35.73
2019-04-04T19:36:29.509Z,49.73
2019-04-04T19:38:59.940Z,47.70
2019-04-04T19:41:30.383Z,44.60
2019-04-04T19:44:00.776Z,43.27
2019-04-04T19:46:37.339Z,42.57
2019-04-04T19:49:05.226Z,40.37
2019-04-04T19:51:35.601Z,38.47
2019-04-04T19:54:06.012Z,40.10
2019-04-04T19:56:36.459Z,38.90
2019-04-04T19:59:06.819Z,38.43
2019-04-04T20:01:37.285Z,44.40
2019-04-04T20:04:07.699Z,40.67
2019-04-04T20:06:38.111Z,39.37
2019-04-04T20:09:08.651Z,43.23
2019-04-04T20:11:39.023Z,37.50
2019-04-04T20:14:09.406Z,43.77
2019-04-04T20:16:39.851Z,44.17
2019-04-04T20:19:10.245Z,38.70
2019-04-04T20:21:40.666Z,36.03
2019-04-04T20:24:11.075Z,37.03
2019-04-04T20:26:41.472Z,39.30
2019-04-04T20:29:11.886Z,38.93
2019-04-04T20:31:43.238Z,38.73
2019-04-04T20:34:13.679Z,38.37
2019-04-04T20:36:44.122Z,36.40
2019-04-04T20:39:14.625Z,37.30
2019-04-04T20:41:45.012Z,38.13
2019-04-04T20:44:15.447Z,39.97
2019-04-04T20:46:45.830Z,39.60
2019-04-04T20:49:16.250Z,48.47
2019-04-04T20:51:46.640Z,44.63
2019-04-04T20:54:17.059Z,42.47
2019-04-04T20:56:47.459Z,43.53
2019-04-04T20:59:17.885Z,41.67
2019-04-04T21:01:48.265Z,39.90
2019-04-04T21:04:18.727Z,44.20
2019-04-04T21:06:49.144Z,44.97
2019-04-04T21:09:19.541Z,42.23
2019-04-04T21:11:49.957Z,42.63
2019-04-04T21:14:20.407Z,46.67
2019-04-04T21:16:50.868Z,48.50
2019-04-04T21:19:21.267Z,47.27
2019-04-04T21:21:51.661Z,45.93
2019-04-04T21:24:22.146Z,51.40
2019-04-04T21:26:52.529Z,36.33
2019-04-04T21:29:22.914Z,46.60
2019-04-04T21:31:53.416Z,55.23
2019-04-04T21:34:23.854Z,46.13
2019-04-04T21:36:54.395Z,52.27
2019-04-04T21:39:24.773Z,49.83
2019-04-04T21:41:55.208Z,45.40
2019-04-04T21:44:25.553Z,48.27
2019-04-04T21:46:55.999Z,46.77
2019-04-04T21:49:29.612Z,46.73
2019-04-04T21:51:59.955Z,46.80
2019-04-04T21:54:30.305Z,48.23
2019-04-04T21:57:00.698Z,46.50
2019-04-04T21:59:31.125Z,44.33
2019-04-04T22:02:02.883Z,45.33
2019-04-04T22:04:33.331Z,44.67
2019-04-04T22:07:03.832Z,41.00
2019-04-04T22:09:34.197Z,47.38
2019-04-04T22:12:04.799Z,43.07
2019-04-04T22:14:35.147Z,38.30
2019-04-04T22:17:05.545Z,38.83
2019-04-04T22:19:35.947Z,38.00
2019-04-04T22:22:06.335Z,40.17
2019-04-04T22:24:36.724Z,37.27
2019-04-04T22:27:07.194Z,39.97
2019-04-04T22:29:37.559Z,38.67
2019-04-04T22:32:07.940Z,35.87
2019-04-04T22:34:38.332Z,35.10
2019-04-04T22:37:08.841Z,35.80
2019-04-04T22:39:39.235Z,36.73
2019-04-04T22:42:09.688Z,35.33
2019-04-04T22:44:40.014Z,36.63
2019-04-04T22:47:10.420Z,36.23
2019-04-04T22:49:40.829Z,38.93
2019-04-04T22:52:11.215Z,46.65
2019-04-04T22:54:41.645Z,37.37
2019-04-04T22:57:12.171Z,37.73
2019-04-04T22:59:42.729Z,37.67
2019-04-04T23:02:13.156Z,36.00
2019-04-04T23:04:43.617Z,36.50
2019-04-04T23:07:14.024Z,34.83
2019-04-04T23:09:44.446Z,36.43
2019-04-04T23:12:14.834Z,36.30
2019-04-04T23:14:48.385Z,37.80
2019-04-04T23:17:17.274Z,38.07
2019-04-04T23:19:47.748Z,38.70
2019-04-04T23:22:18.179Z,40.63
2019-04-04T23:24:48.609Z,37.10
2019-04-04T23:27:19.078Z,36.33
2019-04-04T23:29:49.436Z,39.67
2019-04-04T23:32:19.885Z,39.03
2019-04-04T23:34:50.247Z,39.57
2019-04-04T23:37:20.712Z,40.73
2019-04-04T23:39:51.169Z,40.57
2019-04-04T23:42:21.567Z,40.50
2019-04-04T23:45:00.866Z,39.57
2019-04-04T23:47:24.007Z,38.63
2019-04-04T23:49:58.378Z,39.80
2019-04-04T23:52:28.775Z,39.87
2019-04-04T23:54:59.205Z,38.37
2019-04-04T23:57:29.598Z,36.53
2019-04-04T23:59:59.983Z,35.30
